sensor_id;sensor_type;location;lat;lon;timestamp;noise_LAeq;noise_LA_min;noise_LA_max;noise_LA01;noise_LA95
66335;Laerm;53138;51.496;6.410;2023-01-09T00:00:03;48.10;45.36;51.36;;
66335;Laerm;53138;51.496;6.410;2023-01-09T00:00:14;48.27;46.19;50.81;;
66335;Laerm;53138;51.496;6.410;2023-01-09T00:00:26;48.76;46.98;51.48;;
66335;Laerm;53138;51.496;6.410;2023-01-09T00:00:36;48.82;46.89;50.87;;
66335;Laerm;53138;51.496;6.410;2023-01-09T00:00:47;48.63;46.38;50.70;;
66335;Laerm;53138;51.496;6.410;2023-01-09T00:00:57;48.89;46.89;55.86;;
66335;Laerm;53138;51.496;6.410;2023-01-09T00:01:12;49.10;46.88;52.33;;
66335;Laerm;53138;51.496;6.410;2023-01-09T00:01:27;49.92;47.82;53.68;;
66335;Laerm;53138;51.496;6.410;2023-01-09T00:01:39;50.05;47.59;52.51;;
66335;Laerm;53138;51.496;6.410;2023-01-09T00:01:50;50.04;48.26;53.33;;
66335;Laerm;53138;51.496;6.410;2023-01-09T00:02:00;50.08;48.02;53.09;;
66335;Laerm;53138;51.496;6.410;2023-01-09T00:02:11;51.74;49.39;54.45;;
66335;Laerm;53138;51.496;6.410;2023-01-09T00:02:21;50.73;48.48;53.05;;
66335;Laerm;53138;51.496;6.410;2023-01-09T00:02:31;50.04;47.89;53.15;;
66335;Laerm;53138;51.496;6.410;2023-01-09T00:02:42;50.74;48.57;52.79;;
66335;Laerm;53138;51.496;6.410;2023-01-09T00:02:53;50.47;46.63;53.20;;
66335;Laerm;53138;51.496;6.410;2023-01-09T00:03:03;48.21;46.41;53.18;;
66335;Laerm;53138;51.496;6.410;2023-01-09T00:03:13;49.64;47.64;51.60;;
66335;Laerm;53138;51.496;6.410;2023-01-09T00:03:24;48.66;46.96;50.45;;
66335;Laerm;53138;51.496;6.410;2023-01-09T00:03:34;48.31;46.52;51.11;;
66335;Laerm;53138;51.496;6.410;2023-01-09T00:03:44;47.65;45.65;49.85;;
66335;Laerm;53138;51.496;6.410;2023-01-09T00:03:55;47.72;45.79;49.82;;
66335;Laerm;53138;51.496;6.410;2023-01-09T00:04:05;48.24;46.51;50.58;;
66335;Laerm;53138;51.496;6.410;2023-01-09T00:04:16;48.30;46.49;50.97;;
66335;Laerm;53138;51.496;6.410;2023-01-09T00:04:26;47.82;46.21;49.60;;
66335;Laerm;53138;51.496;6.410;2023-01-09T00:04:37;48.01;45.63;50.51;;
66335;Laerm;53138;51.496;6.410;2023-01-09T00:04:47;47.53;45.04;49.79;;
66335;Laerm;53138;51.496;6.410;2023-01-09T00:04:57;48.42;46.06;50.97;;
66335;Laerm;53138;51.496;6.410;2023-01-09T00:05:08;49.29;46.28;54.44;;
66335;Laerm;53138;51.496;6.410;2023-01-09T00:05:18;47.93;46.08;49.79;;
66335;Laerm;53138;51.496;6.410;2023-01-09T00:05:29;47.66;46.13;49.82;;
66335;Laerm;53138;51.496;6.410;2023-01-09T00:05:39;47.65;45.66;50.75;;
66335;Laerm;53138;51.496;6.410;2023-01-09T00:05:49;47.95;46.16;49.81;;
66335;Laerm;53138;51.496;6.410;2023-01-09T00:06:00;49.02;46.58;56.89;;
66335;Laerm;53138;51.496;6.410;2023-01-09T00:06:10;49.80;47.62;52.47;;
66335;Laerm;53138;51.496;6.410;2023-01-09T00:06:20;49.99;47.87;53.83;;
66335;Laerm;53138;51.496;6.410;2023-01-09T00:06:30;50.74;48.83;53.58;;
66335;Laerm;53138;51.496;6.410;2023-01-09T00:06:41;50.72;48.39;52.68;;
66335;Laerm;53138;51.496;6.410;2023-01-09T00:06:52;50.11;47.94;51.87;;
66335;Laerm;53138;51.496;6.410;2023-01-09T00:07:02;49.56;47.63;54.26;;
66335;Laerm;53138;51.496;6.410;2023-01-09T00:07:13;49.83;47.47;55.09;;
66335;Laerm;53138;51.496;6.410;2023-01-09T00:07:23;49.84;47.94;51.81;;
66335;Laerm;53138;51.496;6.410;2023-01-09T00:07:33;49.55;47.73;51.57;;
66335;Laerm;53138;51.496;6.410;2023-01-09T00:07:44;49.55;47.79;52.15;;
66335;Laerm;53138;51.496;6.410;2023-01-09T00:07:54;49.92;48.47;52.19;;
66335;Laerm;53138;51.496;6.410;2023-01-09T00:08:04;49.41;47.23;51.55;;
66335;Laerm;53138;51.496;6.410;2023-01-09T00:08:15;50.03;48.44;51.97;;
66335;Laerm;53138;51.496;6.410;2023-01-09T00:08:25;49.92;47.47;52.23;;
66335;Laerm;53138;51.496;6.410;2023-01-09T00:08:35;49.46;47.32;51.54;;
66335;Laerm;53138;51.496;6.410;2023-01-09T00:08:45;49.41;47.16;51.75;;
66335;Laerm;53138;51.496;6.410;2023-01-09T00:08:56;50.20;47.93;51.82;;
66335;Laerm;53138;51.496;6.410;2023-01-09T00:09:06;50.70;48.19;52.46;;
66335;Laerm;53138;51.496;6.410;2023-01-09T00:09:16;51.21;49.27;54.14;;
66335;Laerm;53138;51.496;6.410;2023-01-09T00:09:26;52.00;49.29;54.16;;
66335;Laerm;53138;51.496;6.410;2023-01-09T00:09:36;52.56;50.58;55.10;;
66335;Laerm;53138;51.496;6.410;2023-01-09T00:09:47;52.77;50.47;55.40;;
66335;Laerm;53138;51.496;6.410;2023-01-09T00:09:57;53.71;51.86;57.34;;
66335;Laerm;53138;51.496;6.410;2023-01-09T00:10:07;53.18;51.15;56.15;;
66335;Laerm;53138;51.496;6.410;2023-01-09T00:10:18;52.61;50.40;58.89;;
66335;Laerm;53138;51.496;6.410;2023-01-09T00:10:28;53.09;51.23;55.19;;
66335;Laerm;53138;51.496;6.410;2023-01-09T00:10:38;52.16;49.99;54.48;;
66335;Laerm;53138;51.496;6.410;2023-01-09T00:10:49;51.53;49.72;54.61;;
66335;Laerm;53138;51.496;6.410;2023-01-09T00:10:59;51.17;48.74;53.79;;
66335;Laerm;53138;51.496;6.410;2023-01-09T00:11:09;50.13;47.66;54.61;;
66335;Laerm;53138;51.496;6.410;2023-01-09T00:11:19;49.82;47.41;52.11;;
66335;Laerm;53138;51.496;6.410;2023-01-09T00:11:30;50.11;47.51;52.57;;
66335;Laerm;53138;51.496;6.410;2023-01-09T00:11:40;50.18;47.36;57.08;;
66335;Laerm;53138;51.496;6.410;2023-01-09T00:11:51;51.53;49.15;55.49;;
66335;Laerm;53138;51.496;6.410;2023-01-09T00:12:01;52.88;49.28;55.35;;
66335;Laerm;53138;51.496;6.410;2023-01-09T00:12:12;52.61;50.09;55.81;;
66335;Laerm;53138;51.496;6.410;2023-01-09T00:12:22;51.67;49.07;53.84;;
66335;Laerm;53138;51.496;6.410;2023-01-09T00:12:32;52.25;49.85;56.22;;
66335;Laerm;53138;51.496;6.410;2023-01-09T00:12:42;51.04;48.35;52.82;;
66335;Laerm;53138;51.496;6.410;2023-01-09T00:12:53;51.55;48.60;53.50;;
66335;Laerm;53138;51.496;6.410;2023-01-09T00:13:03;50.82;47.90;54.03;;
66335;Laerm;53138;51.496;6.410;2023-01-09T00:13:13;49.17;47.00;51.55;;
66335;Laerm;53138;51.496;6.410;2023-01-09T00:13:23;49.66;47.64;52.42;;
66335;Laerm;53138;51.496;6.410;2023-01-09T00:13:34;50.26;47.96;52.38;;
66335;Laerm;53138;51.496;6.410;2023-01-09T00:13:44;50.83;48.84;52.74;;
66335;Laerm;53138;51.496;6.410;2023-01-09T00:13:56;50.61;48.24;52.76;;
66335;Laerm;53138;51.496;6.410;2023-01-09T00:14:06;50.03;48.18;51.99;;
66335;Laerm;53138;51.496;6.410;2023-01-09T00:14:16;50.53;47.98;53.39;;
66335;Laerm;53138;51.496;6.410;2023-01-09T00:14:27;51.29;49.28;56.72;;
66335;Laerm;53138;51.496;6.410;2023-01-09T00:14:38;52.53;50.09;54.84;;
66335;Laerm;53138;51.496;6.410;2023-01-09T00:14:48;53.48;51.43;55.00;;
66335;Laerm;53138;51.496;6.410;2023-01-09T00:14:58;52.53;49.79;60.65;;
66335;Laerm;53138;51.496;6.410;2023-01-09T00:15:08;52.64;50.46;55.24;;
66335;Laerm;53138;51.496;6.410;2023-01-09T00:15:19;52.36;50.17;54.96;;
66335;Laerm;53138;51.496;6.410;2023-01-09T00:15:29;54.16;51.65;56.82;;
66335;Laerm;53138;51.496;6.410;2023-01-09T00:15:40;53.86;51.79;55.87;;
66335;Laerm;53138;51.496;6.410;2023-01-09T00:15:50;54.20;51.42;58.09;;
66335;Laerm;53138;51.496;6.410;2023-01-09T00:16:01;52.79;49.03;55.13;;
66335;Laerm;53138;51.496;6.410;2023-01-09T00:16:12;52.31;49.75;56.39;;
66335;Laerm;53138;51.496;6.410;2023-01-09T00:16:22;52.34;50.44;55.80;;
66335;Laerm;53138;51.496;6.410;2023-01-09T00:16:33;52.85;49.80;54.70;;
66335;Laerm;53138;51.496;6.410;2023-01-09T00:16:43;49.15;46.39;52.12;;
66335;Laerm;53138;51.496;6.410;2023-01-09T00:16:53;49.25;47.13;51.23;;
66335;Laerm;53138;51.496;6.410;2023-01-09T00:17:04;49.59;46.53;53.54;;
66335;Laerm;53138;51.496;6.410;2023-01-09T00:17:14;50.25;47.81;52.25;;
66335;Laerm;53138;51.496;6.410;2023-01-09T00:17:24;49.82;47.48;51.98;;
66335;Laerm;53138;51.496;6.410;2023-01-09T00:17:34;49.43;47.14;51.61;;
66335;Laerm;53138;51.496;6.410;2023-01-09T00:17:44;48.76;47.07;51.62;;
66335;Laerm;53138;51.496;6.410;2023-01-09T00:17:56;47.72;44.92;50.12;;
66335;Laerm;53138;51.496;6.410;2023-01-09T00:18:07;47.67;45.11;51.73;;
66335;Laerm;53138;51.496;6.410;2023-01-09T00:18:17;47.46;45.00;53.60;;
66335;Laerm;53138;51.496;6.410;2023-01-09T00:18:27;47.15;44.76;54.11;;
66335;Laerm;53138;51.496;6.410;2023-01-09T00:18:38;47.44;45.27;52.57;;
66335;Laerm;53138;51.496;6.410;2023-01-09T00:18:48;47.32;45.06;49.70;;
66335;Laerm;53138;51.496;6.410;2023-01-09T00:18:58;47.78;45.64;52.11;;
66335;Laerm;53138;51.496;6.410;2023-01-09T00:19:10;48.81;46.51;51.42;;
66335;Laerm;53138;51.496;6.410;2023-01-09T00:19:20;47.42;45.07;51.39;;
66335;Laerm;53138;51.496;6.410;2023-01-09T00:19:30;48.00;45.83;51.65;;
66335;Laerm;53138;51.496;6.410;2023-01-09T00:19:40;48.98;46.24;51.82;;
66335;Laerm;53138;51.496;6.410;2023-01-09T00:19:50;48.35;46.69;50.86;;
66335;Laerm;53138;51.496;6.410;2023-01-09T00:20:01;48.19;46.12;51.36;;
66335;Laerm;53138;51.496;6.410;2023-01-09T00:20:11;48.74;45.48;56.13;;
66335;Laerm;53138;51.496;6.410;2023-01-09T00:20:22;46.10;43.88;48.91;;
66335;Laerm;53138;51.496;6.410;2023-01-09T00:20:32;46.34;43.93;51.16;;
66335;Laerm;53138;51.496;6.410;2023-01-09T00:20:42;45.62;43.07;50.41;;
66335;Laerm;53138;51.496;6.410;2023-01-09T00:20:53;47.03;44.23;53.97;;
66335;Laerm;53138;51.496;6.410;2023-01-09T00:21:04;46.12;43.47;49.27;;
66335;Laerm;53138;51.496;6.410;2023-01-09T00:21:14;49.45;45.17;57.21;;
66335;Laerm;53138;51.496;6.410;2023-01-09T00:21:25;47.67;44.73;52.22;;
66335;Laerm;53138;51.496;6.410;2023-01-09T00:21:35;46.07;44.04;53.79;;
66335;Laerm;53138;51.496;6.410;2023-01-09T00:21:45;46.56;44.33;50.48;;
66335;Laerm;53138;51.496;6.410;2023-01-09T00:21:56;47.31;45.32;50.39;;
66335;Laerm;53138;51.496;6.410;2023-01-09T00:22:06;48.29;46.03;55.27;;
66335;Laerm;53138;51.496;6.410;2023-01-09T00:22:18;47.12;45.28;49.75;;
66335;Laerm;53138;51.496;6.410;2023-01-09T00:22:29;46.17;43.43;53.94;;
66335;Laerm;53138;51.496;6.410;2023-01-09T00:22:39;46.34;43.08;58.75;;
66335;Laerm;53138;51.496;6.410;2023-01-09T00:22:50;46.47;44.14;49.98;;
66335;Laerm;53138;51.496;6.410;2023-01-09T00:23:00;46.16;43.59;49.26;;
66335;Laerm;53138;51.496;6.410;2023-01-09T00:23:10;45.46;43.67;49.58;;
66335;Laerm;53138;51.496;6.410;2023-01-09T00:23:20;44.41;40.34;56.42;;
66335;Laerm;53138;51.496;6.410;2023-01-09T00:23:30;43.11;40.66;49.93;;
66335;Laerm;53138;51.496;6.410;2023-01-09T00:23:41;42.91;39.53;54.47;;
66335;Laerm;53138;51.496;6.410;2023-01-09T00:23:52;40.44;38.33;45.23;;
66335;Laerm;53138;51.496;6.410;2023-01-09T00:24:02;40.57;37.70;45.49;;
66335;Laerm;53138;51.496;6.410;2023-01-09T00:24:13;42.06;37.18;50.42;;
66335;Laerm;53138;51.496;6.410;2023-01-09T00:24:23;40.41;37.37;49.39;;
66335;Laerm;53138;51.496;6.410;2023-01-09T00:24:33;40.67;37.13;47.59;;
66335;Laerm;53138;51.496;6.410;2023-01-09T00:24:43;40.70;36.54;53.58;;
66335;Laerm;53138;51.496;6.410;2023-01-09T00:24:53;39.43;36.55;53.97;;
66335;Laerm;53138;51.496;6.410;2023-01-09T00:25:04;38.99;35.56;47.53;;
66335;Laerm;53138;51.496;6.410;2023-01-09T00:25:14;39.18;35.89;50.78;;
66335;Laerm;53138;51.496;6.410;2023-01-09T00:25:24;40.55;36.53;50.99;;
66335;Laerm;53138;51.496;6.410;2023-01-09T00:25:34;40.38;37.33;49.27;;
66335;Laerm;53138;51.496;6.410;2023-01-09T00:25:45;44.69;39.39;56.04;;
66335;Laerm;53138;51.496;6.410;2023-01-09T00:26:06;44.55;39.95;53.56;;
66335;Laerm;53138;51.496;6.410;2023-01-09T00:26:17;41.30;38.40;51.92;;
66335;Laerm;53138;51.496;6.410;2023-01-09T00:26:27;43.59;41.32;53.01;;
66335;Laerm;53138;51.496;6.410;2023-01-09T00:26:38;43.89;42.07;45.99;;
66335;Laerm;53138;51.496;6.410;2023-01-09T00:26:48;44.94;42.73;48.81;;
66335;Laerm;53138;51.496;6.410;2023-01-09T00:26:58;45.09;43.33;52.40;;
66335;Laerm;53138;51.496;6.410;2023-01-09T00:27:08;46.67;44.25;57.03;;
66335;Laerm;53138;51.496;6.410;2023-01-09T00:27:19;49.01;45.99;51.81;;
66335;Laerm;53138;51.496;6.410;2023-01-09T00:27:30;49.53;46.92;54.39;;
66335;Laerm;53138;51.496;6.410;2023-01-09T00:27:41;49.70;46.33;64.03;;
66335;Laerm;53138;51.496;6.410;2023-01-09T00:27:51;48.95;45.99;60.09;;
66335;Laerm;53138;51.496;6.410;2023-01-09T00:28:02;52.02;49.03;60.81;;
66335;Laerm;53138;51.496;6.410;2023-01-09T00:28:12;48.66;44.85;59.74;;
66335;Laerm;53138;51.496;6.410;2023-01-09T00:28:22;47.33;43.74;55.79;;
66335;Laerm;53138;51.496;6.410;2023-01-09T00:28:32;46.79;44.55;59.25;;
66335;Laerm;53138;51.496;6.410;2023-01-09T00:28:43;46.19;44.00;53.33;;
66335;Laerm;53138;51.496;6.410;2023-01-09T00:28:54;46.53;44.61;54.28;;
66335;Laerm;53138;51.496;6.410;2023-01-09T00:29:04;48.05;45.14;56.67;;
66335;Laerm;53138;51.496;6.410;2023-01-09T00:29:14;45.32;42.12;54.78;;
66335;Laerm;53138;51.496;6.410;2023-01-09T00:29:24;46.17;42.45;55.72;;
66335;Laerm;53138;51.496;6.410;2023-01-09T00:29:34;45.43;41.34;52.97;;
66335;Laerm;53138;51.496;6.410;2023-01-09T00:29:45;45.36;41.40;54.89;;
66335;Laerm;53138;51.496;6.410;2023-01-09T00:29:55;43.58;40.45;52.53;;
66335;Laerm;53138;51.496;6.410;2023-01-09T00:30:06;45.25;40.32;56.78;;
66335;Laerm;53138;51.496;6.410;2023-01-09T00:30:17;45.45;40.26;55.15;;
66335;Laerm;53138;51.496;6.410;2023-01-09T00:30:27;48.86;40.58;62.43;;
66335;Laerm;53138;51.496;6.410;2023-01-09T00:30:37;46.45;41.35;57.29;;
66335;Laerm;53138;51.496;6.410;2023-01-09T00:30:54;44.56;40.62;55.45;;
66335;Laerm;53138;51.496;6.410;2023-01-09T00:31:04;44.23;39.80;61.21;;
66335;Laerm;53138;51.496;6.410;2023-01-09T00:31:15;43.11;39.49;55.94;;
66335;Laerm;53138;51.496;6.410;2023-01-09T00:31:26;46.14;40.80;60.92;;
66335;Laerm;53138;51.496;6.410;2023-01-09T00:31:36;43.79;40.30;59.79;;
66335;Laerm;53138;51.496;6.410;2023-01-09T00:31:46;47.85;41.77;60.86;;
66335;Laerm;53138;51.496;6.410;2023-01-09T00:31:56;43.53;39.99;56.33;;
66335;Laerm;53138;51.496;6.410;2023-01-09T00:32:07;41.74;38.70;50.41;;
66335;Laerm;53138;51.496;6.410;2023-01-09T00:32:19;42.70;38.85;54.42;;
66335;Laerm;53138;51.496;6.410;2023-01-09T00:32:31;45.07;38.76;63.02;;
66335;Laerm;53138;51.496;6.410;2023-01-09T00:32:41;46.77;39.38;57.36;;
66335;Laerm;53138;51.496;6.410;2023-01-09T00:32:52;44.53;39.38;57.69;;
66335;Laerm;53138;51.496;6.410;2023-01-09T00:33:02;44.30;40.49;55.26;;
66335;Laerm;53138;51.496;6.410;2023-01-09T00:33:12;46.37;39.96;65.02;;
66335;Laerm;53138;51.496;6.410;2023-01-09T00:33:29;44.24;38.90;61.90;;
66335;Laerm;53138;51.496;6.410;2023-01-09T00:33:42;48.01;36.88;64.88;;
66335;Laerm;53138;51.496;6.410;2023-01-09T00:34:00;41.68;36.80;57.79;;
66335;Laerm;53138;51.496;6.410;2023-01-09T00:34:11;38.56;36.01;49.44;;
66335;Laerm;53138;51.496;6.410;2023-01-09T00:34:21;37.96;35.87;43.23;;
66335;Laerm;53138;51.496;6.410;2023-01-09T00:34:32;39.85;36.02;52.39;;
66335;Laerm;53138;51.496;6.410;2023-01-09T00:34:44;38.82;36.08;49.78;;
66335;Laerm;53138;51.496;6.410;2023-01-09T00:34:54;40.81;37.44;55.64;;
66335;Laerm;53138;51.496;6.410;2023-01-09T00:35:05;44.40;39.13;56.76;;
66335;Laerm;53138;51.496;6.410;2023-01-09T00:35:16;46.94;39.62;60.41;;
66335;Laerm;53138;51.496;6.410;2023-01-09T00:35:27;42.93;38.51;57.93;;
66335;Laerm;53138;51.496;6.410;2023-01-09T00:35:37;40.57;37.39;50.10;;
66335;Laerm;53138;51.496;6.410;2023-01-09T00:35:48;41.43;37.94;52.36;;
66335;Laerm;53138;51.496;6.410;2023-01-09T00:35:58;39.63;35.98;51.43;;
66335;Laerm;53138;51.496;6.410;2023-01-09T00:36:09;41.91;37.32;54.37;;
66335;Laerm;53138;51.496;6.410;2023-01-09T00:36:19;40.22;36.04;55.13;;
66335;Laerm;53138;51.496;6.410;2023-01-09T00:36:29;38.80;34.92;53.23;;
66335;Laerm;53138;51.496;6.410;2023-01-09T00:36:40;37.45;35.03;45.27;;
66335;Laerm;53138;51.496;6.410;2023-01-09T00:36:50;37.96;34.00;54.72;;
66335;Laerm;53138;51.496;6.410;2023-01-09T00:37:04;37.43;33.77;49.00;;
66335;Laerm;53138;51.496;6.410;2023-01-09T00:37:20;36.12;33.92;43.68;;
66335;Laerm;53138;51.496;6.410;2023-01-09T00:37:31;36.20;33.78;42.73;;
66335;Laerm;53138;51.496;6.410;2023-01-09T00:37:41;37.88;34.08;53.98;;
66335;Laerm;53138;51.496;6.410;2023-01-09T00:37:51;42.36;34.50;60.47;;
66335;Laerm;53138;51.496;6.410;2023-01-09T00:38:01;37.82;34.07;51.25;;
66335;Laerm;53138;51.496;6.410;2023-01-09T00:38:12;36.18;33.53;41.69;;
66335;Laerm;53138;51.496;6.410;2023-01-09T00:38:22;36.03;33.34;42.41;;
66335;Laerm;53138;51.496;6.410;2023-01-09T00:38:32;36.89;33.72;52.09;;
66335;Laerm;53138;51.496;6.410;2023-01-09T00:38:43;35.33;32.95;42.57;;
66335;Laerm;53138;51.496;6.410;2023-01-09T00:38:53;35.10;32.79;41.56;;
66335;Laerm;53138;51.496;6.410;2023-01-09T00:39:04;35.28;32.58;41.45;;
66335;Laerm;53138;51.496;6.410;2023-01-09T00:39:14;35.11;32.49;39.18;;
66335;Laerm;53138;51.496;6.410;2023-01-09T00:39:24;34.63;31.89;39.95;;
66335;Laerm;53138;51.496;6.410;2023-01-09T00:39:35;35.04;32.15;40.40;;
66335;Laerm;53138;51.496;6.410;2023-01-09T00:39:45;34.63;32.66;38.42;;
66335;Laerm;53138;51.496;6.410;2023-01-09T00:39:55;35.80;32.90;43.39;;
66335;Laerm;53138;51.496;6.410;2023-01-09T00:40:05;38.55;33.38;55.20;;
66335;Laerm;53138;51.496;6.410;2023-01-09T00:40:16;36.53;33.29;46.66;;
66335;Laerm;53138;51.496;6.410;2023-01-09T00:40:26;35.22;32.43;45.86;;
66335;Laerm;53138;51.496;6.410;2023-01-09T00:40:37;35.02;32.01;45.12;;
66335;Laerm;53138;51.496;6.410;2023-01-09T00:40:47;34.70;32.61;43.91;;
66335;Laerm;53138;51.496;6.410;2023-01-09T00:40:57;35.06;32.25;44.03;;
66335;Laerm;53138;51.496;6.410;2023-01-09T00:41:10;34.70;32.84;40.05;;
66335;Laerm;53138;51.496;6.410;2023-01-09T00:41:22;35.71;32.75;46.77;;
66335;Laerm;53138;51.496;6.410;2023-01-09T00:41:55;34.97;32.64;42.00;;
66335;Laerm;53138;51.496;6.410;2023-01-09T00:42:04;34.41;31.86;46.07;;
66335;Laerm;53138;51.496;6.410;2023-01-09T00:42:17;33.78;31.79;38.14;;
66335;Laerm;53138;51.496;6.410;2023-01-09T00:42:29;35.64;31.84;53.27;;
66335;Laerm;53138;51.496;6.410;2023-01-09T00:42:41;34.28;32.12;41.36;;
66335;Laerm;53138;51.496;6.410;2023-01-09T00:42:53;33.77;31.82;39.04;;
66335;Laerm;53138;51.496;6.410;2023-01-09T00:43:05;34.12;31.80;41.80;;
66335;Laerm;53138;51.496;6.410;2023-01-09T00:43:15;34.13;31.75;42.09;;
66335;Laerm;53138;51.496;6.410;2023-01-09T00:43:27;34.31;32.07;39.24;;
66335;Laerm;53138;51.496;6.410;2023-01-09T00:43:53;34.06;31.96;41.40;;
66335;Laerm;53138;51.496;6.410;2023-01-09T00:44:07;34.16;31.93;40.97;;
66335;Laerm;53138;51.496;6.410;2023-01-09T00:44:20;33.85;31.87;40.93;;
66335;Laerm;53138;51.496;6.410;2023-01-09T00:44:33;34.23;32.05;41.47;;
66335;Laerm;53138;51.496;6.410;2023-01-09T00:44:55;34.99;32.14;50.87;;
66335;Laerm;53138;51.496;6.410;2023-01-09T00:45:07;34.01;31.85;46.13;;
66335;Laerm;53138;51.496;6.410;2023-01-09T00:45:19;35.65;31.67;53.46;;
66335;Laerm;53138;51.496;6.410;2023-01-09T00:45:37;34.73;31.75;47.94;;
66335;Laerm;53138;51.496;6.410;2023-01-09T00:45:47;33.75;31.81;40.48;;
66335;Laerm;53138;51.496;6.410;2023-01-09T00:45:58;33.74;31.66;38.17;;
66335;Laerm;53138;51.496;6.410;2023-01-09T00:46:09;33.62;31.57;39.90;;
66335;Laerm;53138;51.496;6.410;2023-01-09T00:46:20;33.74;31.87;38.42;;
66335;Laerm;53138;51.496;6.410;2023-01-09T00:46:33;33.79;31.92;37.79;;
66335;Laerm;53138;51.496;6.410;2023-01-09T00:46:46;33.68;31.40;38.27;;
66335;Laerm;53138;51.496;6.410;2023-01-09T00:46:59;33.65;31.66;38.20;;
66335;Laerm;53138;51.496;6.410;2023-01-09T00:47:12;34.60;32.07;46.02;;
66335;Laerm;53138;51.496;6.410;2023-01-09T00:47:28;34.88;32.09;41.64;;
66335;Laerm;53138;51.496;6.410;2023-01-09T00:47:44;34.26;32.16;41.65;;
66335;Laerm;53138;51.496;6.410;2023-01-09T00:48:00;35.12;32.89;45.00;;
66335;Laerm;53138;51.496;6.410;2023-01-09T00:48:13;34.62;32.39;43.35;;
66335;Laerm;53138;51.496;6.410;2023-01-09T00:48:24;34.24;31.46;43.96;;
66335;Laerm;53138;51.496;6.410;2023-01-09T00:48:36;34.10;31.67;44.97;;
66335;Laerm;53138;51.496;6.410;2023-01-09T00:48:47;33.74;32.33;36.97;;
66335;Laerm;53138;51.496;6.410;2023-01-09T00:48:58;34.00;31.97;40.13;;
66335;Laerm;53138;51.496;6.410;2023-01-09T00:49:09;33.74;31.79;36.56;;
66335;Laerm;53138;51.496;6.410;2023-01-09T00:49:20;33.88;32.36;36.58;;
66335;Laerm;53138;51.496;6.410;2023-01-09T00:49:31;33.69;32.07;38.27;;
66335;Laerm;53138;51.496;6.410;2023-01-09T00:49:43;34.36;32.30;40.27;;
66335;Laerm;53138;51.496;6.410;2023-01-09T00:49:54;35.08;32.71;46.21;;
66335;Laerm;53138;51.496;6.410;2023-01-09T00:50:09;34.27;32.17;39.01;;
66335;Laerm;53138;51.496;6.410;2023-01-09T00:50:22;34.00;31.82;39.60;;
66335;Laerm;53138;51.496;6.410;2023-01-09T00:50:33;35.28;32.19;41.09;;
66335;Laerm;53138;51.496;6.410;2023-01-09T00:50:44;43.09;36.57;48.91;;
66335;Laerm;53138;51.496;6.410;2023-01-09T00:50:57;39.51;35.14;44.45;;
66335;Laerm;53138;51.496;6.410;2023-01-09T00:51:07;36.28;33.04;41.27;;
66335;Laerm;53138;51.496;6.410;2023-01-09T00:51:18;35.45;32.41;39.64;;
66335;Laerm;53138;51.496;6.410;2023-01-09T00:51:28;34.15;31.85;37.01;;
66335;Laerm;53138;51.496;6.410;2023-01-09T00:51:39;33.69;32.09;36.54;;
66335;Laerm;53138;51.496;6.410;2023-01-09T00:51:50;33.65;31.85;39.70;;
66335;Laerm;53138;51.496;6.410;2023-01-09T00:52:03;33.52;31.75;42.26;;
66335;Laerm;53138;51.496;6.410;2023-01-09T00:52:14;33.31;31.65;37.99;;
66335;Laerm;53138;51.496;6.410;2023-01-09T00:52:25;34.16;31.79;49.47;;
66335;Laerm;53138;51.496;6.410;2023-01-09T00:52:35;33.38;31.87;37.96;;
66335;Laerm;53138;51.496;6.410;2023-01-09T00:52:46;33.86;31.87;42.98;;
66335;Laerm;53138;51.496;6.410;2023-01-09T00:52:58;34.35;32.07;48.20;;
66335;Laerm;53138;51.496;6.410;2023-01-09T00:53:13;33.66;32.03;39.89;;
66335;Laerm;53138;51.496;6.410;2023-01-09T00:53:26;33.31;31.63;42.04;;
66335;Laerm;53138;51.496;6.410;2023-01-09T00:53:38;32.85;31.41;37.99;;
66335;Laerm;53138;51.496;6.410;2023-01-09T00:53:50;33.16;31.55;39.50;;
66335;Laerm;53138;51.496;6.410;2023-01-09T00:54:01;33.34;31.28;38.47;;
66335;Laerm;53138;51.496;6.410;2023-01-09T00:54:12;32.93;31.20;37.23;;
66335;Laerm;53138;51.496;6.410;2023-01-09T00:54:24;33.28;31.32;35.55;;
66335;Laerm;53138;51.496;6.410;2023-01-09T00:54:35;33.35;31.32;36.22;;
66335;Laerm;53138;51.496;6.410;2023-01-09T00:54:46;32.92;31.11;36.86;;
66335;Laerm;53138;51.496;6.410;2023-01-09T00:54:57;32.78;31.23;36.91;;
66335;Laerm;53138;51.496;6.410;2023-01-09T00:55:07;32.75;30.99;37.10;;
66335;Laerm;53138;51.496;6.410;2023-01-09T00:55:18;32.96;30.72;40.29;;
66335;Laerm;53138;51.496;6.410;2023-01-09T00:55:28;32.53;30.35;35.85;;
66335;Laerm;53138;51.496;6.410;2023-01-09T00:55:38;33.04;31.26;39.75;;
66335;Laerm;53138;51.496;6.410;2023-01-09T00:55:49;33.11;31.23;38.54;;
66335;Laerm;53138;51.496;6.410;2023-01-09T00:56:01;33.55;31.18;41.53;;
66335;Laerm;53138;51.496;6.410;2023-01-09T00:56:14;32.95;31.13;35.68;;
66335;Laerm;53138;51.496;6.410;2023-01-09T00:56:25;33.17;31.39;43.43;;
66335;Laerm;53138;51.496;6.410;2023-01-09T00:56:35;32.89;31.08;37.64;;
66335;Laerm;53138;51.496;6.410;2023-01-09T00:56:45;32.72;31.26;36.44;;
66335;Laerm;53138;51.496;6.410;2023-01-09T00:56:56;32.93;31.26;37.16;;
66335;Laerm;53138;51.496;6.410;2023-01-09T00:57:08;34.31;32.19;47.74;;
66335;Laerm;53138;51.496;6.410;2023-01-09T00:57:20;33.50;31.66;38.26;;
66335;Laerm;53138;51.496;6.410;2023-01-09T00:57:30;33.40;31.26;38.03;;
66335;Laerm;53138;51.496;6.410;2023-01-09T00:57:40;33.66;31.16;38.05;;
66335;Laerm;53138;51.496;6.410;2023-01-09T00:57:51;34.41;31.77;37.10;;
66335;Laerm;53138;51.496;6.410;2023-01-09T00:58:01;34.27;31.91;39.79;;
66335;Laerm;53138;51.496;6.410;2023-01-09T00:58:12;36.67;33.05;41.30;;
66335;Laerm;53138;51.496;6.410;2023-01-09T00:58:22;40.25;34.45;46.69;;
66335;Laerm;53138;51.496;6.410;2023-01-09T00:58:32;34.58;32.42;40.21;;
66335;Laerm;53138;51.496;6.410;2023-01-09T00:58:43;33.42;31.31;37.36;;
66335;Laerm;53138;51.496;6.410;2023-01-09T00:58:54;33.53;31.71;36.86;;
66335;Laerm;53138;51.496;6.410;2023-01-09T00:59:05;33.28;31.59;36.48;;
66335;Laerm;53138;51.496;6.410;2023-01-09T00:59:16;33.67;30.79;44.88;;
66335;Laerm;53138;51.496;6.410;2023-01-09T00:59:26;33.52;32.06;39.65;;
66335;Laerm;53138;51.496;6.410;2023-01-09T00:59:37;33.21;31.49;36.44;;
66335;Laerm;53138;51.496;6.410;2023-01-09T00:59:47;33.66;31.03;40.46;;
66335;Laerm;53138;51.496;6.410;2023-01-09T00:59:57;33.49;31.56;38.16;;
66335;Laerm;53138;51.496;6.410;2023-01-09T01:00:08;33.31;31.76;37.71;;
66335;Laerm;53138;51.496;6.410;2023-01-09T01:00:19;33.53;31.87;35.92;;
66335;Laerm;53138;51.496;6.410;2023-01-09T01:00:29;34.74;32.04;50.45;;
66335;Laerm;53138;51.496;6.410;2023-01-09T01:00:39;33.70;32.05;36.28;;
66335;Laerm;53138;51.496;6.410;2023-01-09T01:00:50;33.19;31.56;35.62;;
66335;Laerm;53138;51.496;6.410;2023-01-09T01:01:00;35.55;31.09;49.60;;
66335;Laerm;53138;51.496;6.410;2023-01-09T01:01:10;36.00;31.83;53.76;;
66335;Laerm;53138;51.496;6.410;2023-01-09T01:01:21;34.63;31.68;50.83;;
66335;Laerm;53138;51.496;6.410;2023-01-09T01:01:31;33.33;31.60;40.00;;
66335;Laerm;53138;51.496;6.410;2023-01-09T01:01:41;32.87;31.42;37.65;;
66335;Laerm;53138;51.496;6.410;2023-01-09T01:01:51;33.07;31.75;35.73;;